createdAt,value
2023-04-22T00:00:41.198Z,37.40
2023-04-22T00:03:09.544Z,37.36
2023-04-22T00:05:38.038Z,37.49
2023-04-22T00:08:06.688Z,37.45
2023-04-22T00:10:34.875Z,37.42
2023-04-22T00:13:02.998Z,37.51
2023-04-22T00:15:31.238Z,37.39
2023-04-22T00:18:01.208Z,37.36
2023-04-22T00:20:29.605Z,37.47
2023-04-22T00:22:57.801Z,37.33
2023-04-22T00:25:26.155Z,37.50
2023-04-22T00:27:54.326Z,37.46
2023-04-22T00:30:22.603Z,37.55
2023-04-22T00:32:51.066Z,37.53
2023-04-22T00:35:20.729Z,37.52
2023-04-22T00:37:48.795Z,37.48
2023-04-22T00:40:16.877Z,37.57
2023-04-22T00:42:45.570Z,37.43
2023-04-22T00:45:18.023Z,37.55
2023-04-22T00:47:46.842Z,37.36
2023-04-22T00:50:15.068Z,37.45
2023-04-22T00:52:44.630Z,37.62
2023-04-22T00:55:13.341Z,37.40
2023-04-22T00:57:42.356Z,37.60
2023-04-22T01:00:11.901Z,37.48
2023-04-22T01:02:41.434Z,37.50
2023-04-22T01:05:10.965Z,37.53
2023-04-22T01:07:39.175Z,37.50
2023-04-22T01:10:09.954Z,37.58
2023-04-22T01:12:38.146Z,37.57
2023-04-22T01:15:07.582Z,37.50
2023-04-22T01:17:35.884Z,37.55
2023-04-22T01:20:05.638Z,37.53
2023-04-22T01:22:37.566Z,37.42
2023-04-22T01:25:08.097Z,37.60
2023-04-22T01:27:37.773Z,37.56
2023-04-22T01:30:07.322Z,37.56
2023-04-22T01:32:36.487Z,37.56
2023-04-22T01:35:04.985Z,37.63
2023-04-22T01:37:33.342Z,37.46
2023-04-22T01:40:01.941Z,37.40
2023-04-22T01:42:32.387Z,37.52
2023-04-22T01:45:00.744Z,37.60
2023-04-22T01:47:28.808Z,37.60
2023-04-22T01:49:57.063Z,37.49
2023-04-22T01:52:25.709Z,37.54
2023-04-22T01:54:54.145Z,37.60
2023-04-22T01:57:22.234Z,37.52
2023-04-22T01:59:52.200Z,37.47
2023-04-22T02:02:20.364Z,37.64
2023-04-22T02:04:48.844Z,37.57
2023-04-22T02:07:17.431Z,37.58
2023-04-22T02:09:45.683Z,37.51
2023-04-22T02:12:13.859Z,37.52
2023-04-22T02:14:41.970Z,37.45
2023-04-22T02:17:11.791Z,37.52
2023-04-22T02:19:40.293Z,37.65
2023-04-22T02:22:08.662Z,37.64
2023-04-22T02:24:36.791Z,37.55
2023-04-22T02:27:05.144Z,37.40
2023-04-22T02:29:33.248Z,37.53
2023-04-22T02:32:01.653Z,37.43
2023-04-22T02:34:31.140Z,37.49
2023-04-22T02:36:59.246Z,37.60
2023-04-22T02:39:27.368Z,37.62
2023-04-22T02:41:55.812Z,37.70
2023-04-22T02:44:23.959Z,37.52
2023-04-22T02:46:52.164Z,37.58
2023-04-22T02:49:20.394Z,37.54
2023-04-22T02:51:49.878Z,37.54
2023-04-22T02:54:18.293Z,37.67
2023-04-22T02:56:46.499Z,37.75
2023-04-22T02:59:14.659Z,37.49
2023-04-22T03:01:42.846Z,37.57
2023-04-22T03:04:12.466Z,37.55
2023-04-22T03:06:40.892Z,37.54
2023-04-22T03:09:10.412Z,37.74
2023-04-22T03:11:38.571Z,37.67
2023-04-22T03:14:06.729Z,37.58
2023-04-22T03:16:35.004Z,37.63
2023-04-22T03:19:03.111Z,37.66
2023-04-22T03:21:32.364Z,37.70
2023-04-22T03:24:00.780Z,37.65
2023-04-22T03:26:30.350Z,37.59
2023-04-22T03:28:58.707Z,37.67
2023-04-22T03:31:26.917Z,37.54
2023-04-22T03:33:55.274Z,37.67
2023-04-22T03:36:23.480Z,37.41
2023-04-22T03:38:51.643Z,37.67
2023-04-22T03:41:19.929Z,37.63
2023-04-22T03:43:49.428Z,37.61
2023-04-22T03:46:18.309Z,37.73
2023-04-22T03:48:46.408Z,37.69
2023-04-22T03:51:14.532Z,37.66
2023-04-22T03:53:42.748Z,37.69
2023-04-22T03:56:11.005Z,37.60
2023-04-22T03:58:39.160Z,37.64
2023-04-22T04:01:08.950Z,37.92
2023-04-22T04:03:37.361Z,37.71
2023-04-22T04:06:06.458Z,37.66
2023-04-22T04:08:34.820Z,37.64
2023-04-22T04:11:02.976Z,37.59
2023-04-22T04:13:32.635Z,37.57
2023-04-22T04:16:01.813Z,37.77
2023-04-22T04:18:31.389Z,37.57
2023-04-22T04:20:59.537Z,37.58
2023-04-22T04:23:28.123Z,37.65
2023-04-22T04:25:56.284Z,37.67
2023-04-22T04:28:24.460Z,37.72
2023-04-22T04:30:53.992Z,37.67
2023-04-22T04:33:22.330Z,37.55
2023-04-22T04:35:52.010Z,37.69
2023-04-22T04:38:20.413Z,37.72
2023-04-22T04:40:51.769Z,37.65
2023-04-22T04:43:19.883Z,37.70
2023-04-22T04:45:48.936Z,37.38
2023-04-22T04:48:19.933Z,37.66
2023-04-22T04:50:48.041Z,37.56
2023-04-22T04:53:17.750Z,37.62
2023-04-22T04:55:45.853Z,37.69
2023-04-22T04:58:14.097Z,37.69
2023-04-22T05:00:42.229Z,37.76
2023-04-22T05:03:10.467Z,37.73
2023-04-22T05:05:38.723Z,37.74
2023-04-22T05:08:07.057Z,37.79
2023-04-22T05:10:36.650Z,37.53
2023-04-22T05:13:04.812Z,37.58
2023-04-22T05:15:33.016Z,37.65
2023-04-22T05:18:01.202Z,37.73
2023-04-22T05:20:29.343Z,37.73
2023-04-22T05:22:57.521Z,37.75
2023-04-22T05:25:26.139Z,37.65
2023-04-22T05:27:55.728Z,37.70
2023-04-22T05:30:23.893Z,37.70
2023-04-22T05:32:53.696Z,37.73
2023-04-22T05:35:21.924Z,37.70
2023-04-22T05:37:50.035Z,37.62
2023-04-22T05:40:18.151Z,37.79
2023-04-22T05:42:46.270Z,37.44
2023-04-22T05:45:15.936Z,37.60
2023-04-22T05:47:44.122Z,37.75
2023-04-22T05:50:12.741Z,37.70
2023-04-22T05:52:40.904Z,37.62
2023-04-22T05:55:09.731Z,37.68
2023-04-22T05:57:38.044Z,37.59
2023-04-22T06:00:07.228Z,37.63
2023-04-22T06:02:36.910Z,37.49
2023-04-22T06:05:06.239Z,37.68
2023-04-22T06:07:34.724Z,37.78
2023-04-22T06:10:05.348Z,37.68
2023-04-22T06:12:34.595Z,37.72
2023-04-22T06:15:02.826Z,37.70
2023-04-22T06:17:31.001Z,37.77
2023-04-22T06:20:00.566Z,37.58
2023-04-22T06:22:28.715Z,37.65
2023-04-22T06:24:56.837Z,37.75
2023-04-22T06:27:25.169Z,37.69
2023-04-22T06:29:53.282Z,37.68
2023-04-22T06:32:21.503Z,37.67
2023-04-22T06:34:50.036Z,37.73
2023-04-22T06:37:19.809Z,37.80
2023-04-22T06:39:47.954Z,37.65
2023-04-22T06:42:16.087Z,37.73
2023-04-22T06:44:44.251Z,37.70
2023-04-22T06:47:12.599Z,37.74
2023-04-22T06:49:41.852Z,37.61
2023-04-22T06:52:10.106Z,37.67
2023-04-22T06:54:39.751Z,37.78
2023-04-22T06:57:08.178Z,37.75
2023-04-22T06:59:36.303Z,37.81
2023-04-22T07:02:04.532Z,37.84
2023-04-22T07:04:32.942Z,37.76
2023-04-22T07:07:01.274Z,37.73
2023-04-22T07:09:29.729Z,37.70
2023-04-22T07:11:59.364Z,37.74
2023-04-22T07:14:28.100Z,37.75
2023-04-22T07:16:56.920Z,37.72
2023-04-22T07:19:25.098Z,37.58
2023-04-22T07:21:56.979Z,37.70
2023-04-22T07:24:25.203Z,37.65
2023-04-22T07:26:53.377Z,37.63
2023-04-22T07:29:23.374Z,37.75
2023-04-22T07:31:51.611Z,37.69
2023-04-22T07:34:20.056Z,37.71
2023-04-22T07:36:48.910Z,37.67
2023-04-22T07:39:17.072Z,37.64
2023-04-22T07:41:45.238Z,37.71
2023-04-22T07:44:16.646Z,37.55
2023-04-22T07:46:46.360Z,37.60
2023-04-22T07:49:15.626Z,37.67
2023-04-22T07:51:43.853Z,37.63
2023-04-22T07:54:12.121Z,37.52
2023-04-22T07:56:40.250Z,37.62
2023-04-22T07:59:08.495Z,37.63
2023-04-22T08:01:36.733Z,37.75
2023-04-22T08:04:08.151Z,37.43
2023-04-22T08:06:36.596Z,37.66
2023-04-22T08:09:05.067Z,37.60
2023-04-22T08:11:33.357Z,37.63
2023-04-22T08:14:01.484Z,37.42
2023-04-22T08:16:30.110Z,37.60
2023-04-22T08:18:58.379Z,37.67
2023-04-22T08:21:28.677Z,37.45
2023-04-22T08:23:56.810Z,37.36
2023-04-22T08:26:25.161Z,37.44
2023-04-22T08:28:53.726Z,37.49
2023-04-22T08:31:21.943Z,37.50
2023-04-22T08:33:50.804Z,37.58
2023-04-22T08:36:18.984Z,37.43
2023-04-22T08:38:50.041Z,37.53
2023-04-22T08:41:19.914Z,37.63
2023-04-22T08:43:49.468Z,37.58
2023-04-22T08:46:20.221Z,37.57
2023-04-22T08:48:49.982Z,37.58
2023-04-22T08:51:19.064Z,37.53
2023-04-22T08:53:48.870Z,37.50
2023-04-22T08:56:17.674Z,37.62
2023-04-22T08:58:47.108Z,37.68
2023-04-22T09:01:18.055Z,37.78
2023-04-22T09:03:46.677Z,37.66
2023-04-22T09:06:15.453Z,37.66
2023-04-22T09:08:44.720Z,37.74
2023-04-22T09:11:14.853Z,37.80
2023-04-22T09:13:43.803Z,37.78
2023-04-22T09:16:12.009Z,37.74
2023-04-22T09:18:46.391Z,37.83
2023-04-22T09:21:15.225Z,37.79
2023-04-22T09:23:51.837Z,37.92
2023-04-22T09:26:23.546Z,37.86
2023-04-22T09:28:53.130Z,37.87
2023-04-22T09:31:22.236Z,37.91
2023-04-22T09:33:52.390Z,37.92
2023-04-22T09:36:24.448Z,37.82
2023-04-22T09:38:57.403Z,37.87
2023-04-22T09:41:30.720Z,37.99
2023-04-22T09:43:59.875Z,37.94
2023-04-22T09:46:29.568Z,37.93
2023-04-22T09:48:59.777Z,37.94
2023-04-22T09:51:28.982Z,38.22
2023-04-22T09:54:01.607Z,37.91
2023-04-22T09:56:48.506Z,37.94
2023-04-22T09:59:22.251Z,37.94
2023-04-22T10:01:52.973Z,37.85
2023-04-22T10:04:23.456Z,37.79
2023-04-22T10:06:52.303Z,37.93
2023-04-22T10:09:22.108Z,37.96
2023-04-22T10:11:56.277Z,37.86
2023-04-22T10:14:24.468Z,37.97
2023-04-22T10:16:57.967Z,38.01
2023-04-22T10:19:29.746Z,37.94
2023-04-22T10:22:00.777Z,38.10
2023-04-22T10:24:30.097Z,37.90
2023-04-22T10:27:01.698Z,38.05
2023-04-22T10:29:38.860Z,37.96
2023-04-22T10:32:24.590Z,37.85
2023-04-22T10:35:09.078Z,38.20
2023-04-22T10:37:39.097Z,38.05
2023-04-22T10:40:09.538Z,38.10
2023-04-22T10:42:41.098Z,37.98
2023-04-22T10:45:13.139Z,37.94
2023-04-22T10:47:42.069Z,38.08
2023-04-22T10:50:14.704Z,38.09
2023-04-22T10:52:45.132Z,38.08
2023-04-22T10:55:13.307Z,37.99
2023-04-22T10:57:44.703Z,38.19
2023-04-22T11:00:35.324Z,38.19
2023-04-22T11:03:18.060Z,38.30
2023-04-22T11:05:46.989Z,38.16
2023-04-22T11:08:20.604Z,38.06
2023-04-22T11:10:50.670Z,38.05
2023-04-22T11:13:21.885Z,37.98
2023-04-22T11:15:51.731Z,38.08
2023-04-22T11:18:22.131Z,38.02
2023-04-22T11:20:51.739Z,38.11
2023-04-22T11:23:23.885Z,38.09
2023-04-22T11:25:57.265Z,38.04
2023-04-22T11:28:27.043Z,38.21
2023-04-22T11:31:02.326Z,38.24
2023-04-22T11:33:30.626Z,38.06
2023-04-22T11:36:01.428Z,38.08
2023-04-22T11:38:29.794Z,38.11
2023-04-22T11:40:58.591Z,38.16
2023-04-22T11:43:28.220Z,38.12
2023-04-22T11:46:00.752Z,38.17
2023-04-22T11:48:29.118Z,38.26
2023-04-22T11:51:11.424Z,38.31
2023-04-22T11:53:41.415Z,38.41
2023-04-22T11:56:09.550Z,38.33
2023-04-22T11:58:41.753Z,38.31
2023-04-22T12:01:14.096Z,38.25
2023-04-22T12:03:42.694Z,38.31
2023-04-22T12:06:11.181Z,38.22
2023-04-22T12:08:42.524Z,38.29
2023-04-22T12:11:13.053Z,38.18
2023-04-22T12:13:45.655Z,38.30
2023-04-22T12:16:15.410Z,38.27
2023-04-22T12:18:51.092Z,38.43
2023-04-22T12:21:21.354Z,38.35
2023-04-22T12:23:51.292Z,38.27
2023-04-22T12:26:24.560Z,38.36
2023-04-22T12:28:56.011Z,38.34
2023-04-22T12:31:24.407Z,38.39
2023-04-22T12:33:52.797Z,38.31
2023-04-22T12:36:22.023Z,38.13
2023-04-22T12:38:51.297Z,38.25
2023-04-22T12:41:19.582Z,38.29
2023-04-22T12:43:47.889Z,38.41
2023-04-22T12:46:18.259Z,38.39
2023-04-22T12:48:46.622Z,38.45
2023-04-22T12:51:14.775Z,38.39
2023-04-22T12:53:42.974Z,38.29
2023-04-22T12:56:11.220Z,38.40
2023-04-22T12:58:39.349Z,38.39
2023-04-22T13:01:07.488Z,38.33
2023-04-22T13:03:37.086Z,38.30
2023-04-22T13:06:05.545Z,38.49
2023-04-22T13:08:33.688Z,38.33
2023-04-22T13:11:01.946Z,38.25
2023-04-22T13:13:30.086Z,38.48
2023-04-22T13:15:58.245Z,38.45
2023-04-22T13:18:26.462Z,38.45
2023-04-22T13:20:56.983Z,38.34
2023-04-22T13:23:25.973Z,38.45
2023-04-22T13:25:54.382Z,38.49
2023-04-22T13:28:22.538Z,38.48
2023-04-22T13:30:50.993Z,38.50
2023-04-22T13:33:19.189Z,38.50
2023-04-22T13:35:47.619Z,38.57
2023-04-22T13:38:17.166Z,38.42
2023-04-22T13:40:45.389Z,38.46
2023-04-22T13:43:13.564Z,38.58
2023-04-22T13:45:42.545Z,38.49
2023-04-22T13:48:10.750Z,38.33
2023-04-22T13:50:42.685Z,38.36
2023-04-22T13:53:11.942Z,38.53
2023-04-22T13:55:43.352Z,38.57
2023-04-22T13:58:12.206Z,38.54
2023-04-22T14:00:40.599Z,38.50
2023-04-22T14:03:09.032Z,38.63
2023-04-22T14:05:37.456Z,38.59
2023-04-22T14:08:05.761Z,38.68
2023-04-22T14:10:33.903Z,38.74
2023-04-22T14:13:03.497Z,38.70
2023-04-22T14:15:31.646Z,38.65
2023-04-22T14:17:59.888Z,38.67
2023-04-22T14:20:27.930Z,38.52
2023-04-22T14:22:56.144Z,38.54
2023-04-22T14:25:24.327Z,38.59
2023-04-22T14:27:52.421Z,38.71
2023-04-22T14:30:22.058Z,38.67
2023-04-22T14:32:50.385Z,38.56
2023-04-22T14:35:19.618Z,38.60
2023-04-22T14:37:47.728Z,38.68
2023-04-22T14:40:16.047Z,38.67
2023-04-22T14:42:44.306Z,38.58
2023-04-22T14:45:14.662Z,38.69
2023-04-22T14:47:44.151Z,38.50
2023-04-22T14:50:12.679Z,38.61
2023-04-22T14:52:41.105Z,38.60
2023-04-22T14:55:21.903Z,38.64
2023-04-22T14:57:51.530Z,38.69
2023-04-22T15:00:19.956Z,38.63
2023-04-22T15:02:49.733Z,38.58
2023-04-22T15:05:17.965Z,38.61
2023-04-22T15:07:46.032Z,38.60
2023-04-22T15:10:14.438Z,38.68
2023-04-22T15:12:42.461Z,38.68
2023-04-22T15:15:13.371Z,38.49
2023-04-22T15:17:42.022Z,38.58
2023-04-22T15:20:12.844Z,38.66
2023-04-22T15:22:42.109Z,38.77
2023-04-22T15:25:10.862Z,38.68
2023-04-22T15:27:39.588Z,38.72
2023-04-22T15:30:09.158Z,38.78
2023-04-22T15:32:39.199Z,38.73
2023-04-22T15:35:08.975Z,38.77
2023-04-22T15:37:38.503Z,38.65
2023-04-22T15:40:10.304Z,38.65
2023-04-22T15:42:38.353Z,38.80
2023-04-22T15:45:07.664Z,38.70
2023-04-22T15:47:36.769Z,38.74
2023-04-22T15:50:11.054Z,38.74
2023-04-22T15:52:40.601Z,38.66
2023-04-22T15:55:09.465Z,38.66
2023-04-22T15:57:37.616Z,38.64
2023-04-22T16:00:11.943Z,38.77
2023-04-22T16:02:42.381Z,38.70
2023-04-22T16:05:11.769Z,38.73
2023-04-22T16:07:41.503Z,38.59
2023-04-22T16:10:10.904Z,38.73
2023-04-22T16:12:39.274Z,38.71
2023-04-22T16:15:09.013Z,38.63
2023-04-22T16:17:37.725Z,38.73
2023-04-22T16:20:07.442Z,38.67
2023-04-22T16:22:36.259Z,38.56
2023-04-22T16:25:10.718Z,38.69
2023-04-22T16:27:38.838Z,38.70
2023-04-22T16:30:08.026Z,38.63
2023-04-22T16:32:36.174Z,38.70
2023-04-22T16:35:04.501Z,38.77
2023-04-22T16:37:34.100Z,38.82
2023-04-22T16:40:02.833Z,38.76
2023-04-22T16:42:32.406Z,38.67
2023-04-22T16:45:00.689Z,38.82
2023-04-22T16:47:28.872Z,38.72
2023-04-22T16:49:57.023Z,38.68
2023-04-22T16:52:25.104Z,38.77
2023-04-22T16:54:53.203Z,38.67
2023-04-22T16:57:21.774Z,38.75
2023-04-22T16:59:51.433Z,38.78
2023-04-22T17:02:19.679Z,38.77
2023-04-22T17:04:47.815Z,38.80
2023-04-22T17:07:15.924Z,38.64
2023-04-22T17:09:44.209Z,38.61
2023-04-22T17:12:12.372Z,38.82
2023-04-22T17:14:40.443Z,38.85
2023-04-22T17:17:10.014Z,38.74
2023-04-22T17:19:38.200Z,38.80
2023-04-22T17:22:06.873Z,38.87
2023-04-22T17:24:34.957Z,38.65
2023-04-22T17:27:03.197Z,38.86
2023-04-22T17:29:31.360Z,38.82
2023-04-22T17:31:59.407Z,38.72
2023-04-22T17:34:29.559Z,38.72
2023-04-22T17:36:57.676Z,38.84
2023-04-22T17:39:25.811Z,38.85
2023-04-22T17:41:54.017Z,38.77
2023-04-22T17:44:22.137Z,38.92
2023-04-22T17:46:50.239Z,38.81
2023-04-22T17:49:18.392Z,38.78
2023-04-22T17:51:47.923Z,38.71
2023-04-22T17:54:16.061Z,38.78
2023-04-22T17:56:44.103Z,38.66
2023-04-22T17:59:12.494Z,38.63
2023-04-22T18:01:40.765Z,38.74
2023-04-22T18:04:08.941Z,38.65
2023-04-22T18:06:37.197Z,38.79
2023-04-22T18:09:06.868Z,38.66
2023-04-22T18:11:34.986Z,38.71
2023-04-22T18:14:03.178Z,38.62
2023-04-22T18:16:31.361Z,38.60
2023-04-22T18:19:02.339Z,38.75
2023-04-22T18:21:31.466Z,38.77
2023-04-22T18:23:59.650Z,38.69
2023-04-22T18:26:29.168Z,38.61
2023-04-22T18:28:57.331Z,38.80
2023-04-22T18:31:25.564Z,38.67
2023-04-22T18:33:53.958Z,38.61
2023-04-22T18:36:22.513Z,38.55
2023-04-22T18:38:50.664Z,38.68
2023-04-22T18:41:18.753Z,38.71
2023-04-22T18:43:48.570Z,38.61
2023-04-22T18:46:16.705Z,38.57
2023-04-22T18:48:45.060Z,38.63
2023-04-22T18:51:13.589Z,38.60
2023-04-22T18:53:41.691Z,38.57
2023-04-22T18:56:09.771Z,38.61
2023-04-22T18:58:37.857Z,38.66
2023-04-22T19:01:07.680Z,38.67
2023-04-22T19:03:35.913Z,38.50
2023-04-22T19:06:04.071Z,38.66
2023-04-22T19:08:32.455Z,38.84
2023-04-22T19:11:00.946Z,38.64
2023-04-22T19:13:30.315Z,38.67
2023-04-22T19:15:58.905Z,38.61
2023-04-22T19:18:28.453Z,38.70
2023-04-22T19:20:56.648Z,38.77
2023-04-22T19:23:24.765Z,38.58
2023-04-22T19:25:53.234Z,38.60
2023-04-22T19:28:21.338Z,38.73
2023-04-22T19:30:49.454Z,38.65
2023-04-22T19:33:17.534Z,38.72
2023-04-22T19:35:47.361Z,38.65
2023-04-22T19:38:19.252Z,38.68
2023-04-22T19:40:47.464Z,38.65
2023-04-22T19:43:17.155Z,38.63
2023-04-22T19:45:45.474Z,38.72
2023-04-22T19:48:14.174Z,38.63
2023-04-22T19:50:44.699Z,38.79
2023-04-22T19:53:14.627Z,38.67
2023-04-22T19:55:44.294Z,38.64
2023-04-22T19:58:12.542Z,38.77
2023-04-22T20:00:44.325Z,38.60
2023-04-22T20:03:14.561Z,38.54
2023-04-22T20:05:44.436Z,38.68
2023-04-22T20:08:16.432Z,38.62
2023-04-22T20:10:45.917Z,38.65
2023-04-22T20:13:14.449Z,38.72
2023-04-22T20:15:42.904Z,38.62
2023-04-22T20:18:11.485Z,38.47
2023-04-22T20:20:41.285Z,38.54
2023-04-22T20:23:12.788Z,38.71
2023-04-22T20:25:45.736Z,38.56
2023-04-22T20:28:14.284Z,38.65
2023-04-22T20:30:42.963Z,38.73
2023-04-22T20:33:16.659Z,38.71
2023-04-22T20:35:46.520Z,38.54
2023-04-22T20:38:15.290Z,38.59
2023-04-22T20:40:46.282Z,38.59
2023-04-22T20:43:14.482Z,38.61
2023-04-22T20:45:43.455Z,38.60
2023-04-22T20:48:12.913Z,38.77
2023-04-22T20:50:41.155Z,38.99
2023-04-22T20:53:09.308Z,38.75
2023-04-22T20:55:37.522Z,38.64
2023-04-22T20:58:07.264Z,38.62
2023-04-22T21:00:35.549Z,38.68
2023-04-22T21:03:05.525Z,38.69
2023-04-22T21:05:45.192Z,38.70
2023-04-22T21:08:23.221Z,38.72
2023-04-22T21:10:53.777Z,38.55
2023-04-22T21:13:24.743Z,38.52
2023-04-22T21:15:57.485Z,38.37
2023-04-22T21:18:26.821Z,38.61
2023-04-22T21:20:56.797Z,38.63
2023-04-22T21:23:28.353Z,38.51
2023-04-22T21:25:57.795Z,38.55
2023-04-22T21:28:28.043Z,38.51
2023-04-22T21:30:57.466Z,38.53
2023-04-22T21:33:25.609Z,38.52
2023-04-22T21:35:54.836Z,38.51
2023-04-22T21:38:23.165Z,38.54
2023-04-22T21:40:51.708Z,38.58
2023-04-22T21:43:19.782Z,38.55
2023-04-22T21:45:49.360Z,38.54
2023-04-22T21:48:17.495Z,38.62
2023-04-22T21:50:45.619Z,38.54
2023-04-22T21:53:15.214Z,38.55
2023-04-22T21:55:43.365Z,38.52
2023-04-22T21:58:11.528Z,38.54
2023-04-22T22:00:39.628Z,38.48
2023-04-22T22:03:09.269Z,38.53
2023-04-22T22:05:37.577Z,38.55
2023-04-22T22:08:05.907Z,38.52
2023-04-22T22:10:34.286Z,38.51
2023-04-22T22:13:02.357Z,38.72
2023-04-22T22:15:30.528Z,38.49
2023-04-22T22:17:59.010Z,38.66
2023-04-22T22:20:29.897Z,38.57
2023-04-22T22:22:57.973Z,38.58
2023-04-22T22:25:26.287Z,38.59
2023-04-22T22:27:54.410Z,38.62
2023-04-22T22:30:23.053Z,38.65
2023-04-22T22:32:51.152Z,38.52
2023-04-22T22:35:19.436Z,38.51
2023-04-22T22:37:49.221Z,38.59
2023-04-22T22:40:17.364Z,38.62
2023-04-22T22:42:45.496Z,38.52
2023-04-22T22:45:13.601Z,38.59
2023-04-22T22:47:41.802Z,38.68
2023-04-22T22:50:11.547Z,38.70
2023-04-22T22:52:39.972Z,38.62
2023-04-22T22:55:10.221Z,38.58
2023-04-22T22:57:38.256Z,38.59
2023-04-22T23:00:09.575Z,38.65
2023-04-22T23:02:38.070Z,38.53
2023-04-22T23:05:10.520Z,38.49
2023-04-22T23:07:38.969Z,38.59
2023-04-22T23:10:10.008Z,38.55
2023-04-22T23:12:38.103Z,38.63
2023-04-22T23:15:07.774Z,38.55
2023-04-22T23:17:37.031Z,38.52
2023-04-22T23:20:06.935Z,38.83
2023-04-22T23:22:35.535Z,38.59
2023-04-22T23:25:05.929Z,38.64
2023-04-22T23:27:36.093Z,38.59
2023-04-22T23:30:04.928Z,38.73
2023-04-22T23:32:34.273Z,38.62
2023-04-22T23:35:03.568Z,38.64
2023-04-22T23:37:32.708Z,38.74
2023-04-22T23:40:00.987Z,38.82
2023-04-22T23:42:29.022Z,38.68
2023-04-22T23:44:58.490Z,38.65
2023-04-22T23:47:26.836Z,38.62
2023-04-22T23:49:55.032Z,38.59
2023-04-22T23:52:23.438Z,38.68
2023-04-22T23:54:53.416Z,38.58
2023-04-22T23:57:22.086Z,38.55
2023-04-22T23:59:50.866Z,38.58
